Government of Jersey

Home Log in

Channel Islands Terminal Aerodrome Forecasts (TAFs)

Jersey Airport - EGJJ

EGJJ 181059Z 1812/1821 27012KT 9999 SCT010 SCT025 PROB40 TEMPO 1812/1814 8000 BKN010=

Guernsey Airport - EGJB

EGJB 181059Z 1812/1821 27012KT 9999 SCT010 SCT025 PROB30 TEMPO 1812/1814 BKN010=

Alderney Airport - EGJA

EGJA 181059Z 1812/1821 26013KT 9999 SCT010 SCT025 PROB30 TEMPO 1812/1814 BKN010=